Time;durP1;ratioP1;P1;durP2;ratioP2;P2;SDS_P1;SDS_P2;PMS_P1;PMS_P2;Temp;Humidity;BMP_temperature;BMP_pressure;BME280_temperature;BME280_humidity;BME280_pressure;Samples;Min_cycle;Max_cycle;Signal;HPM_P1;HPM_P2
2023/04/22 00:03:07;;;;;;;7.63;2.27;;;;;;;16.94;58.01;95952.22;10372950;28;20381;-32
2023/04/22 00:08:07;;;;;;;6.60;2.30;;;;;;;16.96;58.46;95950.50;10359754;28;20038;-33
2023/04/22 00:13:08;;;;;;;7.30;2.60;;;;;;;16.94;59.44;95945.47;10368531;28;20116;-32
2023/04/22 00:18:12;;;;;;;6.80;2.50;;;;;;;16.95;59.80;95934.50;10372308;28;20377;-32
2023/04/22 00:23:13;;;;;;;5.78;2.40;;;;;;;16.95;59.23;95947.16;10348363;28;20045;-33
2023/04/22 00:28:15;;;;;;;5.57;2.40;;;;;;;16.99;58.41;95942.91;10360652;28;20026;-33
2023/04/22 00:33:15;;;;;;;4.82;2.03;;;;;;;16.96;57.74;95933.66;10371023;28;20809;-32
2023/04/22 00:38:16;;;;;;;4.30;2.42;;;;;;;16.94;58.11;95935.38;10355202;28;20308;-33
2023/04/22 00:43:16;;;;;;;6.43;2.23;;;;;;;16.93;58.42;95937.88;10368239;28;20026;-33
2023/04/22 00:48:17;;;;;;;3.50;1.92;;;;;;;16.93;57.90;95945.47;10362446;28;20030;-35
2023/04/22 00:53:17;;;;;;;3.88;1.83;;;;;;;16.93;57.66;95942.94;10362105;28;20040;-33
2023/04/22 00:58:20;;;;;;;3.67;2.20;;;;;;;16.93;58.23;95942.94;10366099;28;20030;-33
2023/04/22 01:03:21;;;;;;;2.53;2.10;;;;;;;16.92;58.38;95926.91;10360521;28;20448;-33
2023/04/22 01:08:27;;;;;;;4.60;2.90;;;;;;;16.94;57.22;95929.44;10360190;28;20033;-32
2023/04/22 01:13:29;;;;;;;4.40;1.95;;;;;;;16.97;57.66;95929.41;10366180;28;20030;-33
2023/04/22 01:18:29;;;;;;;8.40;2.13;;;;;;;16.95;57.89;95916.81;10360045;28;20050;-33
2023/04/22 01:23:30;;;;;;;5.80;2.15;;;;;;;16.96;58.22;95923.53;10359618;28;20034;-33
2023/04/22 01:28:31;;;;;;;4.00;2.63;;;;;;;16.97;58.37;95917.63;10352985;28;20038;-33
2023/04/22 01:33:32;;;;;;;6.13;2.50;;;;;;;17.01;57.37;95926.03;10351681;28;20519;-32
2023/04/22 01:38:33;;;;;;;3.67;2.25;;;;;;;16.97;57.66;95924.34;10344280;28;20025;-33
2023/04/22 01:43:34;;;;;;;4.70;2.72;;;;;;;16.96;58.19;95917.63;10344149;28;20027;-33
2023/04/22 01:48:35;;;;;;;2.70;2.03;;;;;;;16.96;57.84;95927.75;10339317;28;20046;-32
2023/04/22 01:53:35;;;;;;;1.83;1.50;;;;;;;16.95;57.69;95937.03;10350671;28;20072;-33
2023/04/22 01:58:38;;;;;;;4.20;1.98;;;;;;;16.96;57.87;95947.97;10364253;28;20507;-33
2023/04/22 02:03:38;;;;;;;1.92;1.63;;;;;;;16.95;58.01;95946.28;10345067;28;20038;-33
2023/04/22 02:08:39;;;;;;;2.60;1.73;;;;;;;16.92;58.15;95947.16;10347291;28;20037;-33
2023/04/22 02:13:40;;;;;;;4.22;1.98;;;;;;;16.92;58.05;95952.19;10355335;28;20377;-33
2023/04/22 02:18:40;;;;;;;3.20;1.98;;;;;;;16.91;58.40;95959.81;10347718;28;20048;-32
2023/04/22 02:23:41;;;;;;;2.80;2.15;;;;;;;16.94;58.25;95965.69;10352874;28;20029;-33
2023/04/22 02:28:42;;;;;;;2.20;1.63;;;;;;;16.98;57.31;95967.34;10362979;28;20033;-32
2023/04/22 02:33:42;;;;;;;3.60;1.83;;;;;;;16.98;58.80;95966.53;10341483;28;20663;-32
2023/04/22 02:38:43;;;;;;;3.17;1.77;;;;;;;16.97;58.46;95969.88;10366049;28;20030;-32
2023/04/22 02:43:45;;;;;;;3.93;1.93;;;;;;;17.01;57.53;95974.06;10362399;28;20121;-34
2023/04/22 02:48:46;;;;;;;1.90;1.55;;;;;;;16.98;58.05;95969.06;10354303;28;20424;-34
2023/04/22 02:53:46;;;;;;;3.83;2.00;;;;;;;16.97;57.80;95985.91;10350736;28;20053;-32
2023/04/22 02:58:46;;;;;;;3.37;1.60;;;;;;;16.97;57.78;95995.16;10356315;28;20687;-32
2023/04/22 03:03:47;;;;;;;2.60;1.80;;;;;;;17.00;57.46;96000.22;10365317;28;20042;-33
2023/04/22 03:08:53;;;;;;;1.80;1.70;;;;;;;16.98;57.60;95996.88;10372739;28;20037;-33
2023/04/22 03:13:53;;;;;;;2.63;1.65;;;;;;;16.95;57.69;95989.28;10358097;28;20030;-33
2023/04/22 03:18:53;;;;;;;2.40;2.07;;;;;;;16.96;58.01;95988.41;10370155;28;20542;-34
2023/04/22 03:23:55;;;;;;;4.35;1.80;;;;;;;16.96;57.85;95993.47;10371543;28;20032;-33
2023/04/22 03:28:55;;;;;;;3.13;1.88;;;;;;;16.94;57.81;95990.13;10372409;28;20037;-33
2023/04/22 03:33:56;;;;;;;3.28;1.88;;;;;;;16.94;57.93;95983.41;10360511;28;20045;-33
2023/04/22 03:39:01;;;;;;;2.80;2.13;;;;;;;16.96;57.96;95985.91;10364817;28;20030;-32
2023/04/22 03:44:03;;;;;;;3.03;1.77;;;;;;;16.96;58.80;95988.41;10360772;28;20116;-32
2023/04/22 03:49:06;;;;;;;4.00;2.83;;;;;;;16.98;58.30;95984.22;10363597;28;20030;-32
2023/04/22 03:54:08;;;;;;;2.78;1.73;;;;;;;16.94;58.01;95980.00;10365086;28;20037;-34
2023/04/22 03:59:13;;;;;;;2.15;1.50;;;;;;;16.95;57.93;95981.69;10371267;28;20026;-32
2023/04/22 04:04:14;;;;;;;2.17;1.40;;;;;;;16.95;57.53;95979.16;10356650;28;20425;-32
2023/04/22 04:09:26;;;;;;;1.65;1.48;;;;;;;16.93;58.13;95974.13;10341988;28;20037;-34
2023/04/22 04:14:26;;;;;;;2.25;1.60;;;;;;;16.93;57.78;95978.34;10354657;28;20042;-33
2023/04/22 04:19:27;;;;;;;3.25;1.88;;;;;;;16.95;57.72;95976.63;10363547;28;20217;-33
2023/04/22 04:24:27;;;;;;;2.33;1.50;;;;;;;16.92;57.94;95976.66;10349400;28;20030;-34
2023/04/22 04:29:35;;;;;;;2.15;1.60;;;;;;;16.92;57.96;95974.13;10361004;28;20330;-33
2023/04/22 04:34:45;;;;;;;2.47;1.92;;;;;;;16.93;57.68;95974.13;10364206;28;20543;-33
2023/04/22 04:39:47;;;;;;;2.72;1.60;;;;;;;16.92;57.87;95969.91;10364359;28;20034;-32
2023/04/22 04:44:49;;;;;;;4.05;2.03;;;;;;;16.88;58.02;95967.41;10358629;28;20076;-33
2023/04/22 04:49:53;;;;;;;2.05;1.65;;;;;;;16.94;58.65;95964.84;10341221;28;20030;-32
2023/04/22 04:54:53;;;;;;;3.13;1.73;;;;;;;16.97;58.51;95969.88;10372872;28;20567;-32
2023/04/22 04:59:54;;;;;;;2.13;1.35;;;;;;;16.99;57.56;95975.78;10352649;28;20089;-32
2023/04/22 05:04:55;;;;;;;2.22;1.40;;;;;;;16.91;58.27;95959.81;10358925;28;20022;-33
2023/04/22 05:09:56;;;;;;;3.90;1.55;;;;;;;16.91;58.08;95969.94;10354723;28;20026;-33
2023/04/22 05:14:56;;;;;;;2.15;1.60;;;;;;;16.92;58.24;95974.13;10352457;28;20053;-33
2023/04/22 05:19:57;;;;;;;2.05;1.58;;;;;;;16.89;57.81;95976.69;10354477;28;20489;-33
2023/04/22 05:24:57;;;;;;;3.28;1.77;;;;;;;16.90;57.65;95971.59;10346610;28;20027;-32
2023/04/22 05:29:58;;;;;;;3.43;1.50;;;;;;;16.95;56.83;95985.06;10343190;28;20042;-32
2023/04/22 05:35:03;;;;;;;3.78;1.55;;;;;;;16.93;57.67;95975.81;10362045;28;20285;-33
2023/04/22 05:40:05;;;;;;;2.95;1.60;;;;;;;16.94;57.82;95975.81;10347311;28;20022;-33
2023/04/22 05:45:07;;;;;;;1.48;1.38;;;;;;;16.92;57.22;95972.44;10366848;28;20033;-33
2023/04/22 05:50:08;;;;;;;3.35;1.70;;;;;;;16.93;57.39;95973.28;10357237;28;20443;-32
2023/04/22 05:55:15;;;;;;;5.03;1.48;;;;;;;16.94;58.30;95985.94;10359181;28;20034;-34
2023/04/22 06:00:17;;;;;;;4.82;1.65;;;;;;;17.00;57.78;95985.03;10352298;28;20027;-32
2023/04/22 06:05:27;;;;;;;6.38;1.65;;;;;;;17.00;58.31;95990.94;10349766;28;20045;-32
2023/04/22 06:10:27;;;;;;;3.33;1.90;;;;;;;16.97;57.92;95985.91;10349406;28;20050;-32
2023/04/22 06:15:28;;;;;;;3.63;1.80;;;;;;;16.99;57.46;95993.47;10367596;28;20404;-32
2023/04/22 06:20:31;;;;;;;5.57;1.38;;;;;;;17.02;56.80;95988.41;10356552;28;20045;-34
2023/04/22 06:25:32;;;;;;;5.03;1.40;;;;;;;17.06;56.31;95992.59;10351886;28;20113;-33
2023/04/22 06:30:32;;;;;;;4.38;1.88;;;;;;;17.09;56.79;95997.63;10358553;28;20431;-32
2023/04/22 06:35:33;;;;;;;2.72;1.60;;;;;;;17.06;57.34;95995.13;10349092;28;20037;-32
2023/04/22 06:40:34;;;;;;;5.72;1.45;;;;;;;17.06;57.45;95990.91;10348423;28;20026;-32
2023/04/22 06:45:54;;;;;;;6.78;1.40;;;;;;;17.07;57.42;96001.88;10353670;28;20113;-32
2023/04/22 06:51:04;;;;;;;5.72;1.40;;;;;;;17.08;55.81;96011.13;10367354;28;20033;-33
2023/04/22 06:56:05;;;;;;;2.58;1.30;;;;;;;17.09;55.89;96012.81;10368596;28;20511;-33
2023/04/22 07:01:06;;;;;;;3.72;1.48;;;;;;;17.08;55.98;96008.59;10367811;28;20030;-33
2023/04/22 07:06:07;;;;;;;5.50;2.70;;;;;;;17.13;56.48;96015.31;10365815;28;20055;-33
2023/04/22 07:11:08;;;;;;;3.95;1.48;;;;;;;17.20;56.19;96005.97;10361258;28;20038;-33
2023/04/22 07:16:29;;;;;;;5.18;1.27;;;;;;;17.12;55.32;96000.97;10360797;28;20049;-34
2023/04/22 07:21:31;;;;;;;3.60;1.17;;;;;;;17.11;55.62;96003.50;10364360;28;20485;-33
2023/04/22 07:26:33;;;;;;;4.65;1.27;;;;;;;17.08;54.89;96008.59;10368244;28;20124;-33
2023/04/22 07:31:36;;;;;;;3.35;1.95;;;;;;;17.09;54.20;95998.44;10374468;28;20468;-33
2023/04/22 07:36:36;;;;;;;6.38;2.97;;;;;;;17.06;54.13;95990.06;10341912;28;20041;-33
2023/04/22 07:41:37;;;;;;;6.90;3.80;;;;;;;17.09;54.17;96002.69;10363470;28;20507;-33
2023/04/22 07:46:37;;;;;;;15.57;4.83;;;;;;;17.09;54.17;96002.69;10357170;28;20040;-33
2023/04/22 07:51:37;;;;;;;5.80;3.10;;;;;;;17.09;54.64;95990.03;10358979;28;20312;-33
2023/04/22 07:56:38;;;;;;;8.37;4.07;;;;;;;17.07;54.26;95997.63;10370241;28;20033;-33
2023/04/22 08:01:38;;;;;;;8.23;4.10;;;;;;;17.07;54.26;95997.63;10378361;28;20034;-33
2023/04/22 08:06:39;;;;;;;9.80;4.73;;;;;;;17.09;54.38;95997.63;10352388;28;20034;-33
2023/04/22 08:11:41;;;;;;;9.05;5.55;;;;;;;17.13;54.88;96001.81;10365240;28;20046;-33
2023/04/22 08:16:41;;;;;;;13.82;6.05;;;;;;;17.20;55.10;96004.31;10362530;28;20033;-33
2023/04/22 08:21:42;;;;;;;13.27;5.10;;;;;;;17.23;54.93;96003.44;10363241;28;20025;-33
2023/04/22 08:26:42;;;;;;;11.87;4.63;;;;;;;17.17;54.61;95989.13;10363828;28;20083;-33
2023/04/22 08:31:43;;;;;;;5.70;3.45;;;;;;;17.18;54.14;95989.97;10356882;28;20069;-33
2023/04/22 08:36:43;;;;;;;8.88;3.55;;;;;;;17.16;54.28;95984.91;10373532;28;20060;-33
2023/04/22 08:41:45;;;;;;;9.55;3.75;;;;;;;17.16;53.90;95981.56;10364548;28;20068;-34
2023/04/22 08:46:47;;;;;;;9.52;4.07;;;;;;;17.13;53.77;95966.41;10358575;28;20447;-33
2023/04/22 08:51:48;;;;;;;6.80;3.20;;;;;;;17.12;53.67;95980.75;10369231;28;20034;-34
2023/04/22 08:56:50;;;;;;;10.60;4.53;;;;;;;17.16;54.76;95981.56;10365042;28;20170;-32
2023/04/22 09:01:52;;;;;;;8.77;3.70;;;;;;;17.17;55.40;95963.84;10357485;28;20022;-34
2023/04/22 09:06:53;;;;;;;8.70;3.58;;;;;;;17.16;55.30;95968.94;10357230;28;20046;-32
2023/04/22 09:11:53;;;;;;;15.33;4.90;;;;;;;17.13;56.50;95971.47;10354446;28;20042;-33
2023/04/22 09:16:57;;;;;;;10.47;4.10;;;;;;;17.11;54.39;95965.56;10369464;28;20299;-33
2023/04/22 09:21:58;;;;;;;8.68;3.70;;;;;;;17.10;54.87;95971.50;10344529;28;20053;-34
2023/04/22 09:27:01;;;;;;;10.60;4.13;;;;;;;17.08;56.19;95963.09;10358466;28;20044;-34
2023/04/22 09:32:10;;;;;;;9.00;3.38;;;;;;;17.08;54.57;95958.03;10347977;28;20031;-34
2023/04/22 09:37:11;;;;;;;23.75;4.10;;;;;;;17.08;55.89;95963.91;10356269;28;20037;-34
2023/04/22 09:42:11;;;;;;;19.92;4.57;;;;;;;17.07;56.71;95948.75;10356959;28;20053;-33
2023/04/22 09:47:12;;;;;;;23.07;4.53;;;;;;;17.09;57.07;95957.16;10348565;28;20038;-34
2023/04/22 09:52:23;;;;;;;17.20;4.05;;;;;;;17.10;57.35;95953.78;10364835;28;20469;-34
2023/04/22 09:57:26;;;;;;;15.32;5.47;;;;;;;17.10;57.07;95961.38;10344897;28;20404;-34
2023/04/22 10:02:29;;;;;;;10.48;4.72;;;;;;;17.05;56.86;95966.47;10367985;28;20068;-33
2023/04/22 10:07:31;;;;;;;14.77;4.38;;;;;;;17.06;56.78;95974.91;10353377;28;20559;-33
2023/04/22 10:12:33;;;;;;;8.35;3.25;;;;;;;17.06;57.11;95969.84;10342319;28;20036;-38
2023/04/22 10:17:38;;;;;;;5.82;2.95;;;;;;;17.05;56.72;95968.13;10365042;28;20496;-33
2023/04/22 10:22:41;;;;;;;8.43;3.15;;;;;;;17.05;56.94;95952.97;10366950;28;20033;-34
2023/04/22 10:27:52;;;;;;;9.00;3.45;;;;;;;17.03;55.53;95964.78;10359523;28;20034;-33
2023/04/22 10:32:53;;;;;;;9.38;3.47;;;;;;;17.04;56.76;95961.41;10366081;28;20091;-34
2023/04/22 10:37:54;;;;;;;9.52;3.53;;;;;;;17.07;57.38;95971.53;10359688;28;20472;-34
2023/04/22 10:43:02;;;;;;;7.72;3.13;;;;;;;17.09;57.27;95960.53;10336723;28;20031;-34
2023/04/22 10:48:03;;;;;;;6.10;3.83;;;;;;;17.05;57.13;95963.94;10364744;28;20066;-33
2023/04/22 10:53:35;;;;;;;9.73;3.45;;;;;;;17.04;56.69;95961.41;10361663;28;20068;-33
2023/04/22 10:58:35;;;;;;;6.68;3.40;;;;;;;17.03;57.09;95959.72;10359428;28;20566;-33
2023/04/22 11:03:35;;;;;;;6.77;3.23;;;;;;;17.03;55.52;95967.31;10356712;28;20038;-33
2023/04/22 11:08:36;;;;;;;5.33;2.50;;;;;;;17.03;55.09;95977.44;10357461;28;20280;-33
2023/04/22 11:13:36;;;;;;;3.80;2.43;;;;;;;17.03;54.66;95979.97;10358242;28;20667;-33
2023/04/22 11:18:37;;;;;;;5.13;2.72;;;;;;;17.02;54.55;95974.06;10358449;28;20377;-34
2023/04/22 11:23:38;;;;;;;5.03;2.63;;;;;;;17.02;54.80;95993.44;10360868;28;20124;-33
2023/04/22 11:28:45;;;;;;;9.67;3.10;;;;;;;17.07;57.41;95991.75;10354931;28;20053;-32
2023/04/22 11:33:46;;;;;;;8.73;2.25;;;;;;;17.05;56.29;95985.84;10355223;28;20034;-33
2023/04/22 11:38:54;;;;;;;10.80;3.38;;;;;;;17.07;56.94;95989.22;10355329;28;20033;-33
2023/04/22 11:43:55;;;;;;;9.45;2.90;;;;;;;17.07;56.25;95971.53;10362014;28;20038;-34
2023/04/22 11:49:16;;;;;;;11.70;3.20;;;;;;;17.07;57.57;95976.56;10355740;28;20038;-33
2023/04/22 11:54:16;;;;;;;21.05;4.55;;;;;;;17.00;56.15;95972.41;10368988;28;20061;-34
2023/04/22 11:59:16;;;;;;;10.20;3.37;;;;;;;17.18;57.14;95982.41;10367164;28;20041;-33
2023/04/22 12:04:20;;;;;;;14.87;3.43;;;;;;;17.23;56.51;95971.41;10363607;28;20030;-34
2023/04/22 12:09:24;;;;;;;11.73;3.30;;;;;;;17.22;56.41;95978.97;10350982;28;20071;-34
2023/04/22 12:14:32;;;;;;;6.25;2.80;;;;;;;17.23;56.66;95983.22;10359236;28;20424;-34
2023/04/22 12:19:32;;;;;;;11.68;2.83;;;;;;;17.23;56.65;95973.91;10361460;28;20617;-33
2023/04/22 12:24:32;;;;;;;6.17;3.00;;;;;;;17.27;57.00;95992.44;10365821;28;20113;-33
2023/04/22 12:29:33;;;;;;;7.57;3.00;;;;;;;17.23;57.96;95986.56;10350893;28;20057;-33
2023/04/22 12:34:33;;;;;;;19.67;4.23;;;;;;;17.38;58.56;95998.28;10350416;28;20030;-34
2023/04/22 12:39:33;;;;;;;6.23;3.40;;;;;;;17.41;56.76;95989.00;10349731;28;20034;-33
2023/04/22 12:44:35;;;;;;;25.23;3.90;;;;;;;17.36;59.69;95979.75;10358423;28;20300;-33
2023/04/22 12:49:37;;;;;;;13.43;4.13;;;;;;;17.37;57.32;95978.91;10359894;28;20034;-33
2023/04/22 12:54:37;;;;;;;14.50;5.47;;;;;;;17.37;57.18;95976.38;10355408;28;20113;-33
2023/04/22 12:59:37;;;;;;;10.27;3.37;;;;;;;17.34;57.50;95968.78;10365275;28;20029;-34
2023/04/22 13:04:38;;;;;;;15.97;4.37;;;;;;;17.33;57.98;95977.22;10367116;28;20168;-33
2023/04/22 13:09:38;;;;;;;13.03;4.17;;;;;;;17.31;58.75;95968.81;10363319;28;20041;-33
2023/04/22 13:14:39;;;;;;;7.97;3.87;;;;;;;17.34;58.89;95968.78;10360276;28;20048;-34
2023/04/22 13:19:39;;;;;;;12.23;4.05;;;;;;;17.38;59.62;95978.06;10361381;28;20292;-33
2023/04/22 13:24:39;;;;;;;11.40;3.93;;;;;;;17.35;60.83;95971.31;10362938;28;20038;-33
2023/04/22 13:29:40;;;;;;;9.73;3.72;;;;;;;17.32;61.07;95967.97;10350951;28;20350;-33
2023/04/22 13:34:41;;;;;;;10.85;3.15;;;;;;;17.30;60.34;95967.13;10354829;28;20033;-33
2023/04/22 13:39:41;;;;;;;13.73;3.83;;;;;;;17.31;59.28;95971.34;10361909;28;20041;-32
2023/04/22 13:44:42;;;;;;;10.57;2.93;;;;;;;17.28;59.79;95961.25;10361239;28;20093;-33
2023/04/22 13:49:42;;;;;;;9.83;2.87;;;;;;;17.28;58.71;95966.28;10366049;28;20041;-33
2023/04/22 13:54:42;;;;;;;11.97;3.70;;;;;;;17.27;59.96;95957.03;10345147;28;20042;-34
2023/04/22 13:59:43;;;;;;;9.83;3.23;;;;;;;17.32;58.64;95958.66;10358028;28;20025;-33
2023/04/22 14:04:46;;;;;;;7.20;2.97;;;;;;;17.31;61.05;95961.25;10353229;28;20038;-33
2023/04/22 14:09:46;;;;;;;16.90;3.75;;;;;;;17.31;60.98;95961.25;10357431;28;20045;-34
2023/04/22 14:14:49;;;;;;;7.00;3.73;;;;;;;17.29;61.37;95963.78;10360103;28;20033;-34
2023/04/22 14:19:49;;;;;;;8.40;3.03;;;;;;;17.29;61.38;95962.91;10350220;28;20066;-33
2023/04/22 14:24:50;;;;;;;5.90;2.23;;;;;;;17.27;59.80;95954.50;10342150;28;20115;-33
2023/04/22 14:29:51;;;;;;;6.07;2.40;;;;;;;17.27;61.18;95960.41;10351162;28;20029;-33
2023/04/22 14:34:51;;;;;;;10.63;2.88;;;;;;;17.28;59.87;95966.28;10362893;28;20297;-33
2023/04/22 14:39:53;;;;;;;5.18;2.42;;;;;;;17.26;60.62;95958.72;10350655;28;20543;-33
2023/04/22 14:44:53;;;;;;;6.13;2.97;;;;;;;17.30;58.98;95959.53;10359578;28;20042;-33
2023/04/22 14:49:53;;;;;;;8.20;2.43;;;;;;;17.30;60.56;95970.50;10357086;28;20076;-33
2023/04/22 14:54:54;;;;;;;7.33;2.37;;;;;;;17.30;60.28;95967.13;10365920;28;20038;-33
2023/04/22 14:59:54;;;;;;;9.48;3.03;;;;;;;17.28;61.07;95966.28;10350886;28;20042;-33
2023/04/22 15:04:54;;;;;;;6.83;2.30;;;;;;;17.28;60.75;95972.22;10363675;28;20081;-33
2023/04/22 15:09:57;;;;;;;4.40;2.47;;;;;;;17.27;60.69;95974.75;10357250;28;20034;-33
2023/04/22 15:14:57;;;;;;;6.07;2.30;;;;;;;17.26;59.43;95978.13;10366973;28;20076;-34
2023/04/22 15:19:58;;;;;;;4.27;2.20;;;;;;;17.27;60.87;95985.72;10364092;28;20416;-34
2023/04/22 15:24:58;;;;;;;8.73;2.80;;;;;;;17.28;60.60;96007.63;10373306;28;20129;-34
2023/04/22 15:29:59;;;;;;;6.27;2.50;;;;;;;17.32;60.02;96028.69;10374141;28;20132;-34
2023/04/22 15:34:59;;;;;;;5.07;2.25;;;;;;;17.32;60.01;96037.09;10357719;28;20111;-33
2023/04/22 15:40:00;;;;;;;3.35;2.17;;;;;;;17.30;61.00;96050.59;10372298;28;20484;-34
2023/04/22 15:45:00;;;;;;;8.00;2.38;;;;;;;17.25;59.15;96057.41;10373480;28;20038;-33
2023/04/22 15:50:05;;;;;;;6.47;1.88;;;;;;;17.31;57.88;96068.31;10359794;28;20030;-33
2023/04/22 15:55:06;;;;;;;8.88;2.90;;;;;;;17.34;59.20;96064.94;10362472;28;20030;-33
2023/04/22 16:00:09;;;;;;;10.32;2.95;;;;;;;17.41;56.63;96074.19;10359459;28;20492;-32
2023/04/22 16:05:15;;;;;;;9.60;2.38;;;;;;;17.44;56.28;96069.09;10366858;28;20045;-33
2023/04/22 16:10:16;;;;;;;10.43;2.40;;;;;;;17.50;57.90;96071.59;10362536;28;20045;-34
2023/04/22 16:15:16;;;;;;;12.23;2.70;;;;;;;17.54;59.25;96065.66;10365413;28;20125;-35
2023/04/22 16:20:17;;;;;;;9.77;2.38;;;;;;;17.51;56.80;96061.47;10355009;28;20295;-33
2023/04/22 16:25:18;;;;;;;7.30;2.03;;;;;;;17.49;56.53;96073.28;10362640;28;20038;-33
2023/04/22 16:30:18;;;;;;;11.45;2.83;;;;;;;17.45;57.65;96075.84;10356088;28;20848;-34
2023/04/22 16:35:18;;;;;;;11.70;3.17;;;;;;;17.47;56.37;96079.19;10354918;28;20042;-34
2023/04/22 16:40:19;;;;;;;13.90;3.47;;;;;;;17.48;59.71;96071.59;10352977;28;20799;-34
2023/04/22 16:45:20;;;;;;;9.77;3.45;;;;;;;17.40;56.33;96068.28;10359020;28;20034;-34
2023/04/22 16:50:20;;;;;;;15.27;5.22;;;;;;;17.42;59.27;96075.88;10359289;28;20026;-33
2023/04/22 16:55:20;;;;;;;14.80;5.30;;;;;;;17.49;57.95;96075.81;10351554;28;20049;-34
2023/04/22 17:00:22;;;;;;;9.60;3.43;;;;;;;17.49;56.35;96073.28;10349545;28;20034;-34
2023/04/22 17:05:23;;;;;;;14.63;5.93;;;;;;;17.47;59.75;96079.19;10363364;28;20121;-34
2023/04/22 17:10:23;;;;;;;9.50;5.20;;;;;;;17.47;57.25;96066.53;10357096;28;20026;-33
2023/04/22 17:15:24;;;;;;;8.67;4.43;;;;;;;17.50;58.90;96069.06;10367815;28;20289;-33
2023/04/22 17:20:24;;;;;;;14.40;5.95;;;;;;;17.53;56.06;96076.63;10350615;28;20575;-33
2023/04/22 17:25:25;;;;;;;9.82;4.90;;;;;;;17.55;55.70;96074.94;10351237;28;20026;-34
2023/04/22 17:30:25;;;;;;;8.27;5.20;;;;;;;17.57;56.18;96075.78;10364724;28;20034;-34
2023/04/22 17:35:25;;;;;;;7.70;4.07;;;;;;;17.58;56.37;96077.47;10351627;28;20038;-33
2023/04/22 17:40:26;;;;;;;15.77;7.30;;;;;;;17.66;60.68;96073.19;10352347;28;20034;-33
2023/04/22 17:45:26;;;;;;;11.73;5.70;;;;;;;17.69;57.95;96066.41;10356882;28;20385;-34
2023/04/22 17:50:27;;;;;;;10.63;5.57;;;;;;;17.68;56.29;96079.06;10347858;28;20304;-34
2023/04/22 17:55:29;;;;;;;14.40;4.80;;;;;;;17.67;56.87;96088.34;10354420;28;20299;-33
2023/04/22 18:00:33;;;;;;;9.43;5.15;;;;;;;17.68;56.34;96090.03;10351300;28;20467;-33
2023/04/22 18:05:33;;;;;;;16.73;5.53;;;;;;;17.77;58.95;96099.25;10357944;28;20458;-33
2023/04/22 18:10:33;;;;;;;17.17;5.40;;;;;;;17.79;58.10;96077.28;10355088;28;20042;-33
2023/04/22 18:15:34;;;;;;;14.33;5.07;;;;;;;17.83;57.65;96053.66;10358718;28;20037;-34
2023/04/22 18:20:34;;;;;;;17.47;5.90;;;;;;;17.75;58.38;96076.47;10356261;28;20484;-34
2023/04/22 18:25:35;;;;;;;16.08;6.20;;;;;;;17.83;58.69;96078.97;10352029;28;20554;-32
2023/04/22 18:30:35;;;;;;;19.48;7.38;;;;;;;17.90;60.15;96096.63;10341808;28;20416;-34
2023/04/22 18:35:36;;;;;;;16.25;6.45;;;;;;;17.92;56.96;96111.81;10358059;28;20040;-34
2023/04/22 18:40:36;;;;;;;13.37;5.20;;;;;;;17.92;57.13;96109.28;10353200;28;20034;-33
2023/04/22 18:45:36;;;;;;;15.67;4.67;;;;;;;17.92;56.98;96104.22;10351100;28;20292;-34
2023/04/22 18:50:37;;;;;;;19.13;5.40;;;;;;;17.92;57.12;96094.91;10351528;28;20562;-33
2023/04/22 18:55:37;;;;;;;11.02;4.60;;;;;;;17.90;57.11;96103.41;10373018;28;20033;-33
2023/04/22 19:00:38;;;;;;;13.60;4.73;;;;;;;17.90;57.27;96121.13;10354303;28;20058;-33
2023/04/22 19:05:38;;;;;;;16.23;4.50;;;;;;;17.88;56.68;96132.94;10361822;28;20301;-34
2023/04/22 19:10:39;;;;;;;10.77;4.63;;;;;;;17.81;56.43;96116.09;10365987;28;20057;-32
2023/04/22 19:15:39;;;;;;;15.80;5.30;;;;;;;17.85;57.69;96120.31;10351789;28;20034;-34
2023/04/22 19:20:40;;;;;;;15.77;5.43;;;;;;;17.91;59.52;96117.72;10353893;28;20038;-35
2023/04/22 19:25:41;;;;;;;13.45;4.03;;;;;;;17.84;56.04;96121.16;10367337;28;20303;-33
2023/04/22 19:30:42;;;;;;;9.95;4.60;;;;;;;17.84;58.92;96121.16;10373482;28;20045;-33
2023/04/22 19:35:42;;;;;;;13.23;4.88;;;;;;;17.76;56.12;96115.31;10364795;28;20033;-34
2023/04/22 19:40:42;;;;;;;9.97;3.57;;;;;;;17.77;55.35;96114.44;10359397;28;20038;-33
2023/04/22 19:45:43;;;;;;;9.00;3.50;;;;;;;17.77;55.53;96114.44;10365150;28;20116;-34
2023/04/22 19:50:44;;;;;;;12.32;4.85;;;;;;;17.85;58.03;96117.78;10349123;28;20034;-33
2023/04/22 19:55:45;;;;;;;9.93;3.88;;;;;;;17.87;56.73;96121.13;10365305;28;20440;-34
2023/04/22 20:00:46;;;;;;;12.38;3.63;;;;;;;17.84;56.22;96121.16;10359433;28;20044;-34
2023/04/22 20:05:47;;;;;;;5.90;3.30;;;;;;;17.82;55.73;96112.75;10355456;28;20030;-33
2023/04/22 20:10:48;;;;;;;6.68;3.45;;;;;;;17.80;55.93;96122.00;10364750;28;20488;-34
2023/04/22 20:15:49;;;;;;;6.70;3.40;;;;;;;17.79;55.62;96122.88;10360184;28;20121;-33
2023/04/22 20:20:51;;;;;;;6.68;3.22;;;;;;;17.76;55.75;96112.78;10342002;28;20026;-34
2023/04/22 20:25:54;;;;;;;8.85;3.95;;;;;;;17.73;55.84;96107.75;10359203;28;20054;-34
2023/04/22 20:30:55;;;;;;;8.25;3.72;;;;;;;17.77;58.46;96119.50;10370843;28;20036;-34
2023/04/22 20:35:56;;;;;;;15.25;4.82;;;;;;;17.87;60.66;96133.78;10341839;28;20038;-34
2023/04/22 20:41:00;;;;;;;7.35;3.63;;;;;;;17.80;57.30;96127.06;10352951;28;20117;-34
2023/04/22 20:46:01;;;;;;;6.15;3.45;;;;;;;17.74;56.05;96127.97;10352757;28;20496;-33
2023/04/22 20:51:01;;;;;;;5.73;3.10;;;;;;;17.72;56.10;96128.81;10342433;28;20052;-34
2023/04/22 20:56:03;;;;;;;6.75;3.28;;;;;;;17.71;55.84;96137.25;10363200;28;20033;-33
2023/04/22 21:01:07;;;;;;;7.68;3.25;;;;;;;17.68;55.68;96130.53;10350503;28;20636;-34
2023/04/22 21:06:08;;;;;;;6.00;2.83;;;;;;;17.66;55.78;96116.22;10357939;28;20051;-33
2023/04/22 21:11:08;;;;;;;4.43;3.53;;;;;;;17.66;56.32;96118.75;10345593;28;20037;-33
2023/04/22 21:16:10;;;;;;;8.90;3.35;;;;;;;17.67;59.01;96117.91;10349493;28;20451;-34
2023/04/22 21:21:14;;;;;;;7.18;3.63;;;;;;;17.80;60.45;96124.53;10360680;28;20026;-33
2023/04/22 21:26:16;;;;;;;8.60;3.83;;;;;;;17.81;61.74;96116.94;10353535;28;20045;-34
2023/04/22 21:31:16;;;;;;;8.48;3.20;;;;;;;17.71;56.83;96122.94;10342771;28;20069;-34
2023/04/22 21:36:17;;;;;;;5.70;2.80;;;;;;;17.67;56.42;96128.84;10352445;28;20493;-33
2023/04/22 21:41:17;;;;;;;6.18;3.22;;;;;;;17.62;56.31;96134.78;10355712;28;20030;-34
2023/04/22 21:46:20;;;;;;;5.57;2.87;;;;;;;17.62;56.41;96138.19;10360948;28;20033;-34
2023/04/22 21:51:21;;;;;;;7.80;4.03;;;;;;;17.61;56.14;96140.72;10361250;28;20662;-34
2023/04/22 21:56:21;;;;;;;7.63;3.10;;;;;;;17.60;55.97;96141.56;10352443;28;20037;-34
2023/04/22 22:01:22;;;;;;;5.13;2.63;;;;;;;17.58;55.98;96144.09;10352905;28;20820;-33
2023/04/22 22:06:22;;;;;;;8.07;3.20;;;;;;;17.67;60.09;96148.28;10357419;28;20505;-34
2023/04/22 22:11:23;;;;;;;6.68;3.83;;;;;;;17.79;60.91;96153.25;10355731;28;20046;-34
2023/04/22 22:16:24;;;;;;;4.63;3.33;;;;;;;17.72;59.19;96151.59;10360028;28;20030;-33
2023/04/22 22:21:24;;;;;;;4.55;3.13;;;;;;;17.65;56.62;96149.97;10350000;28;20316;-34
2023/04/22 22:26:25;;;;;;;3.77;2.50;;;;;;;17.60;55.82;96146.63;10343735;28;20045;-34
2023/04/22 22:31:25;;;;;;;3.70;2.40;;;;;;;17.58;56.62;96158.47;10356941;28;20591;-34
2023/04/22 22:36:26;;;;;;;3.80;2.20;;;;;;;17.57;55.92;96156.78;10359799;28;20356;-34
2023/04/22 22:41:27;;;;;;;4.20;2.50;;;;;;;17.56;55.53;96167.75;10352134;28;20292;-34
2023/04/22 22:46:27;;;;;;;4.57;2.70;;;;;;;17.53;55.50;96165.22;10366712;28;20087;-34
2023/04/22 22:51:28;;;;;;;4.73;1.93;;;;;;;17.54;55.72;96169.44;10350867;28;20830;-34
2023/04/22 22:56:29;;;;;;;8.25;3.40;;;;;;;17.64;60.33;96166.00;10352437;28;20046;-33
2023/04/22 23:01:29;;;;;;;5.73;3.20;;;;;;;17.76;61.12;96165.94;10350991;28;20033;-33
2023/04/22 23:06:30;;;;;;;4.33;2.80;;;;;;;17.70;60.22;96173.56;10354477;28;20303;-34
2023/04/22 23:11:31;;;;;;;5.90;3.13;;;;;;;17.60;56.49;96179.53;10356378;28;20292;-34
2023/04/22 23:16:31;;;;;;;4.40;2.30;;;;;;;17.57;55.66;96174.50;10366944;28;20041;-33
2023/04/22 23:21:33;;;;;;;6.18;2.33;;;;;;;17.55;56.19;96181.22;10352761;28;20072;-34